sensor_id;sensor_type;location;lat;lon;timestamp;P1;durP1;ratioP1;P2;durP2;ratioP2
19219;SDS011;9744;49.364;7.484;2022-09-09T00:00:53;5.57;;;1.30;;
19219;SDS011;9744;49.364;7.484;2022-09-09T00:03:25;9.27;;;0.90;;
19219;SDS011;9744;49.364;7.484;2022-09-09T00:05:56;2.85;;;0.80;;
19219;SDS011;9744;49.364;7.484;2022-09-09T00:08:32;11.10;;;1.42;;
19219;SDS011;9744;49.364;7.484;2022-09-09T00:11:08;6.93;;;1.20;;
19219;SDS011;9744;49.364;7.484;2022-09-09T00:13:39;5.38;;;1.30;;
19219;SDS011;9744;49.364;7.484;2022-09-09T00:16:15;9.00;;;1.58;;
19219;SDS011;9744;49.364;7.484;2022-09-09T00:18:50;6.03;;;1.00;;
19219;SDS011;9744;49.364;7.484;2022-09-09T00:21:24;9.02;;;1.25;;
19219;SDS011;9744;49.364;7.484;2022-09-09T00:23:59;7.68;;;1.05;;
19219;SDS011;9744;49.364;7.484;2022-09-09T00:26:35;2.95;;;0.80;;
19219;SDS011;9744;49.364;7.484;2022-09-09T00:29:14;5.35;;;0.85;;
19219;SDS011;9744;49.364;7.484;2022-09-09T00:31:51;6.43;;;1.00;;
19219;SDS011;9744;49.364;7.484;2022-09-09T00:34:25;6.28;;;1.00;;
19219;SDS011;9744;49.364;7.484;2022-09-09T00:36:54;4.15;;;0.77;;
19219;SDS011;9744;49.364;7.484;2022-09-09T00:39:27;6.43;;;0.90;;
19219;SDS011;9744;49.364;7.484;2022-09-09T00:42:02;4.00;;;0.60;;
19219;SDS011;9744;49.364;7.484;2022-09-09T00:44:45;6.38;;;1.20;;
19219;SDS011;9744;49.364;7.484;2022-09-09T00:53:06;4.63;;;0.80;;
19219;SDS011;9744;49.364;7.484;2022-09-09T00:55:51;6.28;;;1.02;;
19219;SDS011;9744;49.364;7.484;2022-09-09T00:58:25;5.55;;;0.75;;
19219;SDS011;9744;49.364;7.484;2022-09-09T01:00:54;3.28;;;1.20;;
19219;SDS011;9744;49.364;7.484;2022-09-09T01:03:32;7.30;;;0.93;;
19219;SDS011;9744;49.364;7.484;2022-09-09T01:06:02;4.35;;;0.82;;
19219;SDS011;9744;49.364;7.484;2022-09-09T01:08:45;8.32;;;1.63;;
19219;SDS011;9744;49.364;7.484;2022-09-09T01:11:33;4.82;;;0.90;;
19219;SDS011;9744;49.364;7.484;2022-09-09T01:14:11;12.57;;;1.35;;
19219;SDS011;9744;49.364;7.484;2022-09-09T01:16:46;10.88;;;1.52;;
19219;SDS011;9744;49.364;7.484;2022-09-09T01:19:17;5.13;;;0.82;;
19219;SDS011;9744;49.364;7.484;2022-09-09T01:21:54;11.50;;;0.90;;
19219;SDS011;9744;49.364;7.484;2022-09-09T01:24:34;5.40;;;1.10;;
19219;SDS011;9744;49.364;7.484;2022-09-09T01:27:19;8.02;;;0.73;;
19219;SDS011;9744;49.364;7.484;2022-09-09T01:29:48;2.38;;;0.80;;
19219;SDS011;9744;49.364;7.484;2022-09-09T01:32:37;5.60;;;0.80;;
19219;SDS011;9744;49.364;7.484;2022-09-09T01:35:10;6.07;;;1.00;;
19219;SDS011;9744;49.364;7.484;2022-09-09T01:37:41;6.35;;;0.70;;
19219;SDS011;9744;49.364;7.484;2022-09-09T01:40:08;5.13;;;0.93;;
19219;SDS011;9744;49.364;7.484;2022-09-09T01:42:38;10.82;;;1.30;;
19219;SDS011;9744;49.364;7.484;2022-09-09T01:45:06;8.40;;;0.68;;
19219;SDS011;9744;49.364;7.484;2022-09-09T01:47:34;3.92;;;0.70;;
19219;SDS011;9744;49.364;7.484;2022-09-09T01:50:22;5.30;;;0.73;;
19219;SDS011;9744;49.364;7.484;2022-09-09T01:52:51;5.43;;;0.50;;
19219;SDS011;9744;49.364;7.484;2022-09-09T01:55:28;3.75;;;0.70;;
19219;SDS011;9744;49.364;7.484;2022-09-09T01:58:01;4.22;;;0.60;;
19219;SDS011;9744;49.364;7.484;2022-09-09T02:00:42;4.93;;;0.90;;
19219;SDS011;9744;49.364;7.484;2022-09-09T02:03:18;13.85;;;1.13;;
19219;SDS011;9744;49.364;7.484;2022-09-09T02:05:59;2.90;;;0.40;;
19219;SDS011;9744;49.364;7.484;2022-09-09T02:08:33;4.57;;;0.57;;
19219;SDS011;9744;49.364;7.484;2022-09-09T02:11:09;4.90;;;0.65;;
19219;SDS011;9744;49.364;7.484;2022-09-09T02:14:05;4.22;;;0.57;;
19219;SDS011;9744;49.364;7.484;2022-09-09T02:16:40;7.72;;;0.98;;
19219;SDS011;9744;49.364;7.484;2022-09-09T02:19:13;3.97;;;0.70;;
19219;SDS011;9744;49.364;7.484;2022-09-09T02:22:10;7.95;;;0.82;;
19219;SDS011;9744;49.364;7.484;2022-09-09T02:24:39;3.47;;;0.60;;
19219;SDS011;9744;49.364;7.484;2022-09-09T02:27:17;4.93;;;0.50;;
19219;SDS011;9744;49.364;7.484;2022-09-09T02:29:48;4.93;;;0.70;;
19219;SDS011;9744;49.364;7.484;2022-09-09T02:32:24;6.18;;;0.70;;
19219;SDS011;9744;49.364;7.484;2022-09-09T02:34:53;3.20;;;0.70;;
19219;SDS011;9744;49.364;7.484;2022-09-09T02:37:23;3.58;;;0.60;;
19219;SDS011;9744;49.364;7.484;2022-09-09T02:39:56;3.42;;;0.70;;
19219;SDS011;9744;49.364;7.484;2022-09-09T02:42:23;6.18;;;0.88;;
19219;SDS011;9744;49.364;7.484;2022-09-09T02:44:54;6.32;;;0.80;;
19219;SDS011;9744;49.364;7.484;2022-09-09T02:47:25;2.40;;;0.60;;
19219;SDS011;9744;49.364;7.484;2022-09-09T02:50:05;3.90;;;0.70;;
19219;SDS011;9744;49.364;7.484;2022-09-09T02:52:46;4.80;;;0.82;;
19219;SDS011;9744;49.364;7.484;2022-09-09T02:55:23;4.72;;;0.60;;
19219;SDS011;9744;49.364;7.484;2022-09-09T02:57:58;5.60;;;0.50;;
19219;SDS011;9744;49.364;7.484;2022-09-09T03:00:29;6.07;;;0.73;;
19219;SDS011;9744;49.364;7.484;2022-09-09T03:03:00;8.18;;;0.88;;
19219;SDS011;9744;49.364;7.484;2022-09-09T03:05:27;3.58;;;0.52;;
19219;SDS011;9744;49.364;7.484;2022-09-09T03:07:55;6.28;;;0.70;;
19219;SDS011;9744;49.364;7.484;2022-09-09T03:10:22;6.70;;;1.00;;
19219;SDS011;9744;49.364;7.484;2022-09-09T03:12:49;5.05;;;0.60;;
19219;SDS011;9744;49.364;7.484;2022-09-09T03:15:18;5.05;;;0.90;;
19219;SDS011;9744;49.364;7.484;2022-09-09T03:17:47;9.65;;;1.55;;
19219;SDS011;9744;49.364;7.484;2022-09-09T03:20:15;7.57;;;1.08;;
19219;SDS011;9744;49.364;7.484;2022-09-09T03:22:42;1.98;;;0.60;;
19219;SDS011;9744;49.364;7.484;2022-09-09T03:25:10;3.75;;;0.50;;
19219;SDS011;9744;49.364;7.484;2022-09-09T03:27:37;8.30;;;1.02;;
19219;SDS011;9744;49.364;7.484;2022-09-09T03:30:06;6.85;;;0.70;;
19219;SDS011;9744;49.364;7.484;2022-09-09T03:32:34;9.15;;;0.73;;
19219;SDS011;9744;49.364;7.484;2022-09-09T03:35:03;7.05;;;0.85;;
19219;SDS011;9744;49.364;7.484;2022-09-09T03:37:31;2.92;;;0.63;;
19219;SDS011;9744;49.364;7.484;2022-09-09T03:39:58;6.95;;;1.20;;
19219;SDS011;9744;49.364;7.484;2022-09-09T03:42:27;3.55;;;0.77;;
19219;SDS011;9744;49.364;7.484;2022-09-09T03:44:56;5.03;;;0.70;;
19219;SDS011;9744;49.364;7.484;2022-09-09T03:47:25;9.88;;;0.80;;
19219;SDS011;9744;49.364;7.484;2022-09-09T03:49:58;7.82;;;0.93;;
19219;SDS011;9744;49.364;7.484;2022-09-09T03:52:27;3.63;;;0.90;;
19219;SDS011;9744;49.364;7.484;2022-09-09T03:54:54;17.27;;;0.93;;
19219;SDS011;9744;49.364;7.484;2022-09-09T03:57:22;7.57;;;1.30;;
19219;SDS011;9744;49.364;7.484;2022-09-09T03:59:49;4.70;;;0.80;;
19219;SDS011;9744;49.364;7.484;2022-09-09T04:02:16;7.47;;;0.98;;
19219;SDS011;9744;49.364;7.484;2022-09-09T04:04:44;7.15;;;1.08;;
19219;SDS011;9744;49.364;7.484;2022-09-09T04:07:11;9.63;;;1.00;;
19219;SDS011;9744;49.364;7.484;2022-09-09T04:09:40;8.35;;;0.82;;
19219;SDS011;9744;49.364;7.484;2022-09-09T04:12:07;7.00;;;1.10;;
19219;SDS011;9744;49.364;7.484;2022-09-09T04:14:39;6.25;;;0.98;;
19219;SDS011;9744;49.364;7.484;2022-09-09T04:17:06;6.65;;;0.70;;
19219;SDS011;9744;49.364;7.484;2022-09-09T04:19:33;6.47;;;0.80;;
19219;SDS011;9744;49.364;7.484;2022-09-09T04:22:01;4.85;;;0.60;;
19219;SDS011;9744;49.364;7.484;2022-09-09T04:24:31;9.00;;;1.52;;
19219;SDS011;9744;49.364;7.484;2022-09-09T04:27:01;5.95;;;1.00;;
19219;SDS011;9744;49.364;7.484;2022-09-09T04:29:30;2.42;;;0.85;;
19219;SDS011;9744;49.364;7.484;2022-09-09T04:31:58;5.38;;;1.00;;
19219;SDS011;9744;49.364;7.484;2022-09-09T04:34:25;8.88;;;0.90;;
19219;SDS011;9744;49.364;7.484;2022-09-09T04:36:54;10.93;;;1.00;;
19219;SDS011;9744;49.364;7.484;2022-09-09T04:39:22;7.72;;;0.80;;
19219;SDS011;9744;49.364;7.484;2022-09-09T04:41:50;8.20;;;1.00;;
19219;SDS011;9744;49.364;7.484;2022-09-09T04:44:21;11.18;;;1.10;;
19219;SDS011;9744;49.364;7.484;2022-09-09T04:46:48;7.57;;;1.10;;
19219;SDS011;9744;49.364;7.484;2022-09-09T04:49:16;5.53;;;0.88;;
19219;SDS011;9744;49.364;7.484;2022-09-09T04:51:43;10.82;;;1.00;;
19219;SDS011;9744;49.364;7.484;2022-09-09T04:54:11;7.40;;;1.30;;
19219;SDS011;9744;49.364;7.484;2022-09-09T04:56:41;9.48;;;1.20;;
19219;SDS011;9744;49.364;7.484;2022-09-09T04:59:10;9.90;;;1.27;;
19219;SDS011;9744;49.364;7.484;2022-09-09T05:01:47;7.90;;;2.00;;
19219;SDS011;9744;49.364;7.484;2022-09-09T05:04:15;12.40;;;1.30;;
19219;SDS011;9744;49.364;7.484;2022-09-09T05:06:44;10.38;;;1.38;;
19219;SDS011;9744;49.364;7.484;2022-09-09T05:09:12;9.27;;;1.40;;
19219;SDS011;9744;49.364;7.484;2022-09-09T05:11:40;17.00;;;1.52;;
19219;SDS011;9744;49.364;7.484;2022-09-09T05:14:17;10.25;;;1.50;;
19219;SDS011;9744;49.364;7.484;2022-09-09T05:16:44;9.52;;;1.30;;
19219;SDS011;9744;49.364;7.484;2022-09-09T05:19:14;14.13;;;1.42;;
19219;SDS011;9744;49.364;7.484;2022-09-09T05:21:47;12.00;;;2.53;;
19219;SDS011;9744;49.364;7.484;2022-09-09T05:24:19;9.80;;;1.63;;
19219;SDS011;9744;49.364;7.484;2022-09-09T05:26:50;11.80;;;1.73;;
19219;SDS011;9744;49.364;7.484;2022-09-09T05:29:17;11.77;;;1.58;;
19219;SDS011;9744;49.364;7.484;2022-09-09T05:31:45;7.80;;;1.23;;
19219;SDS011;9744;49.364;7.484;2022-09-09T05:34:17;6.28;;;1.13;;
19219;SDS011;9744;49.364;7.484;2022-09-09T05:36:45;13.18;;;1.50;;
19219;SDS011;9744;49.364;7.484;2022-09-09T05:39:13;11.45;;;1.55;;
19219;SDS011;9744;49.364;7.484;2022-09-09T05:41:41;7.97;;;1.55;;
19219;SDS011;9744;49.364;7.484;2022-09-09T05:44:08;7.45;;;1.50;;
19219;SDS011;9744;49.364;7.484;2022-09-09T05:46:38;7.22;;;1.38;;
19219;SDS011;9744;49.364;7.484;2022-09-09T05:49:06;9.27;;;1.38;;
19219;SDS011;9744;49.364;7.484;2022-09-09T05:51:35;6.50;;;1.40;;
19219;SDS011;9744;49.364;7.484;2022-09-09T05:54:09;8.57;;;1.50;;
19219;SDS011;9744;49.364;7.484;2022-09-09T05:56:42;9.15;;;1.65;;
19219;SDS011;9744;49.364;7.484;2022-09-09T05:59:09;13.13;;;1.90;;
19219;SDS011;9744;49.364;7.484;2022-09-09T06:01:38;10.32;;;1.48;;
19219;SDS011;9744;49.364;7.484;2022-09-09T06:04:08;9.02;;;1.95;;
19219;SDS011;9744;49.364;7.484;2022-09-09T06:06:39;11.23;;;1.73;;
19219;SDS011;9744;49.364;7.484;2022-09-09T06:09:16;9.07;;;1.70;;
19219;SDS011;9744;49.364;7.484;2022-09-09T06:11:43;7.15;;;1.50;;
19219;SDS011;9744;49.364;7.484;2022-09-09T06:14:12;13.65;;;2.17;;
19219;SDS011;9744;49.364;7.484;2022-09-09T06:16:40;11.90;;;1.83;;
19219;SDS011;9744;49.364;7.484;2022-09-09T06:19:24;8.43;;;1.50;;
19219;SDS011;9744;49.364;7.484;2022-09-09T06:21:56;8.63;;;1.95;;
19219;SDS011;9744;49.364;7.484;2022-09-09T06:24:23;12.15;;;1.98;;
19219;SDS011;9744;49.364;7.484;2022-09-09T06:26:51;18.40;;;2.85;;
19219;SDS011;9744;49.364;7.484;2022-09-09T06:29:22;12.98;;;2.08;;
19219;SDS011;9744;49.364;7.484;2022-09-09T06:31:51;9.38;;;1.75;;
19219;SDS011;9744;49.364;7.484;2022-09-09T06:34:23;12.20;;;1.80;;
19219;SDS011;9744;49.364;7.484;2022-09-09T06:36:55;14.25;;;1.70;;
19219;SDS011;9744;49.364;7.484;2022-09-09T06:39:24;13.20;;;2.45;;
19219;SDS011;9744;49.364;7.484;2022-09-09T06:41:51;14.77;;;2.17;;
19219;SDS011;9744;49.364;7.484;2022-09-09T06:44:38;13.43;;;2.10;;
19219;SDS011;9744;49.364;7.484;2022-09-09T06:47:09;14.68;;;2.75;;
19219;SDS011;9744;49.364;7.484;2022-09-09T06:49:38;11.20;;;1.80;;
19219;SDS011;9744;49.364;7.484;2022-09-09T06:52:10;12.93;;;2.25;;
19219;SDS011;9744;49.364;7.484;2022-09-09T06:54:37;7.07;;;1.80;;
19219;SDS011;9744;49.364;7.484;2022-09-09T06:57:05;13.63;;;1.90;;
19219;SDS011;9744;49.364;7.484;2022-09-09T06:59:33;13.10;;;2.28;;
19219;SDS011;9744;49.364;7.484;2022-09-09T07:02:01;14.70;;;2.08;;
19219;SDS011;9744;49.364;7.484;2022-09-09T07:04:28;12.93;;;2.10;;
19219;SDS011;9744;49.364;7.484;2022-09-09T07:06:57;9.48;;;1.67;;
19219;SDS011;9744;49.364;7.484;2022-09-09T07:09:26;15.60;;;1.95;;
19219;SDS011;9744;49.364;7.484;2022-09-09T07:11:54;8.25;;;2.03;;
19219;SDS011;9744;49.364;7.484;2022-09-09T07:14:24;6.63;;;1.95;;
19219;SDS011;9744;49.364;7.484;2022-09-09T07:16:58;10.40;;;2.88;;
19219;SDS011;9744;49.364;7.484;2022-09-09T07:19:30;7.20;;;2.03;;
19219;SDS011;9744;49.364;7.484;2022-09-09T07:22:00;12.77;;;2.33;;
19219;SDS011;9744;49.364;7.484;2022-09-09T07:24:30;12.80;;;2.30;;
19219;SDS011;9744;49.364;7.484;2022-09-09T07:26:58;17.20;;;2.33;;
19219;SDS011;9744;49.364;7.484;2022-09-09T07:29:25;15.93;;;1.92;;
19219;SDS011;9744;49.364;7.484;2022-09-09T07:31:53;9.73;;;2.25;;
19219;SDS011;9744;49.364;7.484;2022-09-09T07:34:25;7.88;;;1.60;;
19219;SDS011;9744;49.364;7.484;2022-09-09T07:36:52;10.93;;;1.88;;
19219;SDS011;9744;49.364;7.484;2022-09-09T07:39:20;9.93;;;2.03;;
19219;SDS011;9744;49.364;7.484;2022-09-09T07:41:53;8.95;;;1.75;;
19219;SDS011;9744;49.364;7.484;2022-09-09T07:44:23;11.00;;;1.80;;
19219;SDS011;9744;49.364;7.484;2022-09-09T07:46:59;8.88;;;2.10;;
19219;SDS011;9744;49.364;7.484;2022-09-09T07:49:32;12.77;;;1.77;;
19219;SDS011;9744;49.364;7.484;2022-09-09T07:52:02;9.10;;;2.05;;
19219;SDS011;9744;49.364;7.484;2022-09-09T07:54:30;9.52;;;1.65;;
19219;SDS011;9744;49.364;7.484;2022-09-09T07:57:00;14.02;;;2.25;;
19219;SDS011;9744;49.364;7.484;2022-09-09T07:59:30;19.42;;;2.38;;
19219;SDS011;9744;49.364;7.484;2022-09-09T08:01:59;20.10;;;2.22;;
19219;SDS011;9744;49.364;7.484;2022-09-09T08:04:29;21.33;;;2.00;;
19219;SDS011;9744;49.364;7.484;2022-09-09T08:06:58;13.85;;;1.88;;
19219;SDS011;9744;49.364;7.484;2022-09-09T08:09:28;13.48;;;1.70;;
19219;SDS011;9744;49.364;7.484;2022-09-09T08:12:05;15.93;;;2.15;;
19219;SDS011;9744;49.364;7.484;2022-09-09T08:14:34;14.02;;;1.90;;
19219;SDS011;9744;49.364;7.484;2022-09-09T08:17:02;11.70;;;1.90;;
19219;SDS011;9744;49.364;7.484;2022-09-09T08:19:31;16.98;;;2.03;;
19219;SDS011;9744;49.364;7.484;2022-09-09T08:22:02;18.35;;;1.95;;
19219;SDS011;9744;49.364;7.484;2022-09-09T08:24:32;16.95;;;1.73;;
19219;SDS011;9744;49.364;7.484;2022-09-09T08:26:59;10.93;;;1.92;;
19219;SDS011;9744;49.364;7.484;2022-09-09T08:29:29;14.23;;;1.70;;
19219;SDS011;9744;49.364;7.484;2022-09-09T08:31:57;16.60;;;2.10;;
19219;SDS011;9744;49.364;7.484;2022-09-09T08:34:26;8.02;;;2.63;;
19219;SDS011;9744;49.364;7.484;2022-09-09T08:36:57;17.67;;;2.25;;
19219;SDS011;9744;49.364;7.484;2022-09-09T08:39:33;16.15;;;2.05;;
19219;SDS011;9744;49.364;7.484;2022-09-09T08:45:14;9.20;;;1.73;;
19219;SDS011;9744;49.364;7.484;2022-09-09T08:47:50;9.48;;;1.50;;
19219;SDS011;9744;49.364;7.484;2022-09-09T08:50:27;14.45;;;1.50;;
19219;SDS011;9744;49.364;7.484;2022-09-09T08:53:04;14.98;;;2.03;;
19219;SDS011;9744;49.364;7.484;2022-09-09T08:55:38;12.18;;;1.73;;
19219;SDS011;9744;49.364;7.484;2022-09-09T08:58:11;13.13;;;1.92;;
19219;SDS011;9744;49.364;7.484;2022-09-09T09:00:48;7.03;;;1.20;;
19219;SDS011;9744;49.364;7.484;2022-09-09T09:03:28;13.52;;;1.40;;
19219;SDS011;9744;49.364;7.484;2022-09-09T09:06:04;8.60;;;1.00;;
19219;SDS011;9744;49.364;7.484;2022-09-09T09:08:43;8.55;;;1.50;;
19219;SDS011;9744;49.364;7.484;2022-09-09T09:11:18;9.65;;;1.23;;
19219;SDS011;9744;49.364;7.484;2022-09-09T09:13:47;10.63;;;1.20;;
19219;SDS011;9744;49.364;7.484;2022-09-09T09:16:23;7.32;;;1.40;;
19219;SDS011;9744;49.364;7.484;2022-09-09T09:18:58;11.13;;;1.33;;
19219;SDS011;9744;49.364;7.484;2022-09-09T09:21:36;8.75;;;1.65;;
19219;SDS011;9744;49.364;7.484;2022-09-09T09:24:13;8.70;;;0.98;;
19219;SDS011;9744;49.364;7.484;2022-09-09T09:26:45;8.25;;;1.13;;
19219;SDS011;9744;49.364;7.484;2022-09-09T09:29:13;10.35;;;2.05;;
19219;SDS011;9744;49.364;7.484;2022-09-09T09:31:44;4.40;;;1.08;;
19219;SDS011;9744;49.364;7.484;2022-09-09T09:34:15;9.70;;;1.27;;
19219;SDS011;9744;49.364;7.484;2022-09-09T09:36:44;7.43;;;1.60;;
19219;SDS011;9744;49.364;7.484;2022-09-09T09:39:22;10.65;;;1.33;;
19219;SDS011;9744;49.364;7.484;2022-09-09T09:41:51;7.63;;;1.38;;
19219;SDS011;9744;49.364;7.484;2022-09-09T09:44:24;8.57;;;1.40;;
19219;SDS011;9744;49.364;7.484;2022-09-09T09:47:04;8.38;;;1.20;;
19219;SDS011;9744;49.364;7.484;2022-09-09T09:49:34;13.43;;;1.35;;
19219;SDS011;9744;49.364;7.484;2022-09-09T09:52:02;6.75;;;1.10;;
19219;SDS011;9744;49.364;7.484;2022-09-09T09:54:33;5.47;;;1.30;;
19219;SDS011;9744;49.364;7.484;2022-09-09T09:57:08;12.02;;;1.45;;
19219;SDS011;9744;49.364;7.484;2022-09-09T09:59:36;8.73;;;1.10;;
19219;SDS011;9744;49.364;7.484;2022-09-09T10:02:18;10.48;;;1.15;;
19219;SDS011;9744;49.364;7.484;2022-09-09T10:05:01;8.40;;;1.35;;
19219;SDS011;9744;49.364;7.484;2022-09-09T10:07:31;8.10;;;0.93;;
19219;SDS011;9744;49.364;7.484;2022-09-09T10:09:59;15.10;;;1.38;;
19219;SDS011;9744;49.364;7.484;2022-09-09T10:12:30;9.90;;;1.25;;
19219;SDS011;9744;49.364;7.484;2022-09-09T10:15:14;10.43;;;1.00;;
19219;SDS011;9744;49.364;7.484;2022-09-09T10:17:59;10.60;;;1.10;;
19219;SDS011;9744;49.364;7.484;2022-09-09T10:20:36;7.85;;;1.13;;
19219;SDS011;9744;49.364;7.484;2022-09-09T10:23:13;7.45;;;1.52;;
19219;SDS011;9744;49.364;7.484;2022-09-09T10:26:01;10.45;;;1.05;;
19219;SDS011;9744;49.364;7.484;2022-09-09T10:28:45;3.97;;;0.70;;
19219;SDS011;9744;49.364;7.484;2022-09-09T10:31:25;8.18;;;1.10;;
19219;SDS011;9744;49.364;7.484;2022-09-09T10:34:02;9.45;;;1.30;;
19219;SDS011;9744;49.364;7.484;2022-09-09T10:36:40;10.10;;;1.15;;
19219;SDS011;9744;49.364;7.484;2022-09-09T10:39:15;8.35;;;1.65;;
19219;SDS011;9744;49.364;7.484;2022-09-09T10:41:55;11.70;;;1.50;;
19219;SDS011;9744;49.364;7.484;2022-09-09T10:44:53;9.52;;;1.10;;
19219;SDS011;9744;49.364;7.484;2022-09-09T10:47:43;5.63;;;1.25;;
19219;SDS011;9744;49.364;7.484;2022-09-09T10:50:28;8.07;;;1.50;;
19219;SDS011;9744;49.364;7.484;2022-09-09T10:53:11;7.43;;;1.42;;
19219;SDS011;9744;49.364;7.484;2022-09-09T10:55:45;7.78;;;1.23;;
19219;SDS011;9744;49.364;7.484;2022-09-09T10:58:19;6.88;;;1.10;;
19219;SDS011;9744;49.364;7.484;2022-09-09T11:00:53;6.25;;;0.98;;
19219;SDS011;9744;49.364;7.484;2022-09-09T11:03:24;5.13;;;1.48;;
19219;SDS011;9744;49.364;7.484;2022-09-09T11:05:56;5.95;;;1.00;;
19219;SDS011;9744;49.364;7.484;2022-09-09T11:08:28;6.95;;;0.75;;
19219;SDS011;9744;49.364;7.484;2022-09-09T11:10:58;7.45;;;0.88;;
19219;SDS011;9744;49.364;7.484;2022-09-09T11:13:30;4.85;;;1.13;;
19219;SDS011;9744;49.364;7.484;2022-09-09T11:16:11;7.90;;;1.20;;
19219;SDS011;9744;49.364;7.484;2022-09-09T11:18:48;6.35;;;1.40;;
19219;SDS011;9744;49.364;7.484;2022-09-09T11:21:19;6.65;;;1.27;;
19219;SDS011;9744;49.364;7.484;2022-09-09T11:23:52;6.25;;;1.02;;
19219;SDS011;9744;49.364;7.484;2022-09-09T11:26:24;8.05;;;0.80;;
19219;SDS011;9744;49.364;7.484;2022-09-09T11:29:01;7.28;;;0.77;;
19219;SDS011;9744;49.364;7.484;2022-09-09T11:31:53;9.88;;;0.95;;
19219;SDS011;9744;49.364;7.484;2022-09-09T11:34:42;7.35;;;1.38;;
19219;SDS011;9744;49.364;7.484;2022-09-09T11:37:32;9.25;;;1.30;;
19219;SDS011;9744;49.364;7.484;2022-09-09T11:40:17;6.10;;;1.00;;
19219;SDS011;9744;49.364;7.484;2022-09-09T11:42:47;14.23;;;0.95;;
19219;SDS011;9744;49.364;7.484;2022-09-09T11:45:22;5.15;;;1.20;;
19219;SDS011;9744;49.364;7.484;2022-09-09T11:47:54;7.03;;;0.65;;
19219;SDS011;9744;49.364;7.484;2022-09-09T11:50:30;10.90;;;0.93;;
19219;SDS011;9744;49.364;7.484;2022-09-09T11:56:02;3.83;;;0.60;;
19219;SDS011;9744;49.364;7.484;2022-09-09T11:58:37;6.07;;;0.65;;
19219;SDS011;9744;49.364;7.484;2022-09-09T12:01:25;3.30;;;0.35;;
19219;SDS011;9744;49.364;7.484;2022-09-09T12:04:00;7.80;;;0.70;;
19219;SDS011;9744;49.364;7.484;2022-09-09T12:06:53;5.78;;;0.77;;
19219;SDS011;9744;49.364;7.484;2022-09-09T12:09:27;8.23;;;0.85;;
19219;SDS011;9744;49.364;7.484;2022-09-09T12:12:16;5.07;;;0.90;;
19219;SDS011;9744;49.364;7.484;2022-09-09T12:14:56;4.40;;;0.65;;
19219;SDS011;9744;49.364;7.484;2022-09-09T12:17:26;3.28;;;1.02;;
19219;SDS011;9744;49.364;7.484;2022-09-09T12:20:03;6.70;;;1.10;;
19219;SDS011;9744;49.364;7.484;2022-09-09T12:22:39;11.52;;;1.73;;
19219;SDS011;9744;49.364;7.484;2022-09-09T12:25:26;7.35;;;1.25;;
19219;SDS011;9744;49.364;7.484;2022-09-09T12:28:05;12.57;;;1.92;;
19219;SDS011;9744;49.364;7.484;2022-09-09T12:30:40;11.02;;;1.08;;
19219;SDS011;9744;49.364;7.484;2022-09-09T12:33:16;6.93;;;1.05;;
19219;SDS011;9744;49.364;7.484;2022-09-09T12:35:45;11.13;;;1.48;;
19219;SDS011;9744;49.364;7.484;2022-09-09T12:38:19;6.63;;;0.80;;
19219;SDS011;9744;49.364;7.484;2022-09-09T12:40:55;7.55;;;0.77;;
19219;SDS011;9744;49.364;7.484;2022-09-09T12:43:25;6.65;;;1.05;;
19219;SDS011;9744;49.364;7.484;2022-09-09T12:45:55;7.55;;;0.80;;
19219;SDS011;9744;49.364;7.484;2022-09-09T12:48:28;5.43;;;0.98;;
19219;SDS011;9744;49.364;7.484;2022-09-09T12:50:58;7.78;;;0.80;;
19219;SDS011;9744;49.364;7.484;2022-09-09T12:53:26;5.65;;;1.02;;
19219;SDS011;9744;49.364;7.484;2022-09-09T12:55:58;4.40;;;0.93;;
19219;SDS011;9744;49.364;7.484;2022-09-09T12:58:27;11.00;;;1.10;;
19219;SDS011;9744;49.364;7.484;2022-09-09T13:00:58;6.25;;;1.25;;
19219;SDS011;9744;49.364;7.484;2022-09-09T13:03:26;6.38;;;1.20;;
19219;SDS011;9744;49.364;7.484;2022-09-09T13:05:56;5.80;;;1.00;;
19219;SDS011;9744;49.364;7.484;2022-09-09T13:08:25;3.28;;;0.70;;
19219;SDS011;9744;49.364;7.484;2022-09-09T13:10:53;5.50;;;0.95;;
19219;SDS011;9744;49.364;7.484;2022-09-09T13:13:27;4.93;;;1.00;;
19219;SDS011;9744;49.364;7.484;2022-09-09T13:15:58;6.13;;;1.10;;
19219;SDS011;9744;49.364;7.484;2022-09-09T13:18:28;6.35;;;1.10;;
19219;SDS011;9744;49.364;7.484;2022-09-09T13:20:58;7.25;;;1.13;;
19219;SDS011;9744;49.364;7.484;2022-09-09T13:23:26;4.10;;;1.20;;
19219;SDS011;9744;49.364;7.484;2022-09-09T13:25:56;8.32;;;0.90;;
19219;SDS011;9744;49.364;7.484;2022-09-09T13:28:25;8.95;;;1.15;;
19219;SDS011;9744;49.364;7.484;2022-09-09T13:30:58;8.77;;;1.00;;
19219;SDS011;9744;49.364;7.484;2022-09-09T13:33:29;5.03;;;1.20;;
19219;SDS011;9744;49.364;7.484;2022-09-09T13:35:59;4.53;;;1.00;;
19219;SDS011;9744;49.364;7.484;2022-09-09T13:38:29;8.30;;;1.00;;
19219;SDS011;9744;49.364;7.484;2022-09-09T13:41:00;12.98;;;1.45;;
19219;SDS011;9744;49.364;7.484;2022-09-09T13:43:34;4.38;;;0.98;;
19219;SDS011;9744;49.364;7.484;2022-09-09T13:46:04;6.00;;;1.25;;
19219;SDS011;9744;49.364;7.484;2022-09-09T13:48:53;16.33;;;1.45;;
19219;SDS011;9744;49.364;7.484;2022-09-09T13:51:25;5.70;;;0.80;;
19219;SDS011;9744;49.364;7.484;2022-09-09T13:54:05;6.55;;;1.00;;
19219;SDS011;9744;49.364;7.484;2022-09-09T13:56:33;8.23;;;1.10;;
19219;SDS011;9744;49.364;7.484;2022-09-09T13:59:03;6.57;;;1.25;;
19219;SDS011;9744;49.364;7.484;2022-09-09T14:01:31;6.90;;;1.00;;
19219;SDS011;9744;49.364;7.484;2022-09-09T14:04:00;8.52;;;1.05;;
19219;SDS011;9744;49.364;7.484;2022-09-09T14:06:27;2.65;;;0.90;;
19219;SDS011;9744;49.364;7.484;2022-09-09T14:08:55;9.10;;;1.05;;
19219;SDS011;9744;49.364;7.484;2022-09-09T14:11:22;6.10;;;0.98;;
19219;SDS011;9744;49.364;7.484;2022-09-09T14:13:50;8.32;;;1.40;;
19219;SDS011;9744;49.364;7.484;2022-09-09T14:16:18;11.10;;;1.15;;
19219;SDS011;9744;49.364;7.484;2022-09-09T14:18:47;8.85;;;0.98;;
19219;SDS011;9744;49.364;7.484;2022-09-09T14:21:14;1.73;;;0.70;;
19219;SDS011;9744;49.364;7.484;2022-09-09T14:23:42;4.72;;;0.70;;
19219;SDS011;9744;49.364;7.484;2022-09-09T14:26:09;5.20;;;0.70;;
19219;SDS011;9744;49.364;7.484;2022-09-09T14:28:36;5.10;;;0.80;;
19219;SDS011;9744;49.364;7.484;2022-09-09T14:31:05;5.32;;;0.90;;
19219;SDS011;9744;49.364;7.484;2022-09-09T14:33:35;1.80;;;0.40;;
19219;SDS011;9744;49.364;7.484;2022-09-09T14:36:03;4.85;;;0.70;;
19219;SDS011;9744;49.364;7.484;2022-09-09T14:38:31;3.72;;;0.60;;
19219;SDS011;9744;49.364;7.484;2022-09-09T14:41:04;5.20;;;0.82;;
19219;SDS011;9744;49.364;7.484;2022-09-09T14:43:31;3.20;;;0.60;;
19219;SDS011;9744;49.364;7.484;2022-09-09T14:46:04;5.20;;;0.90;;
19219;SDS011;9744;49.364;7.484;2022-09-09T14:48:32;1.50;;;0.40;;
19219;SDS011;9744;49.364;7.484;2022-09-09T14:51:06;3.97;;;0.50;;
19219;SDS011;9744;49.364;7.484;2022-09-09T14:53:33;4.28;;;0.50;;
19219;SDS011;9744;49.364;7.484;2022-09-09T14:56:05;3.65;;;0.40;;
19219;SDS011;9744;49.364;7.484;2022-09-09T14:58:33;3.90;;;0.43;;
19219;SDS011;9744;49.364;7.484;2022-09-09T15:01:02;5.22;;;1.05;;
19219;SDS011;9744;49.364;7.484;2022-09-09T15:03:30;3.53;;;0.45;;
19219;SDS011;9744;49.364;7.484;2022-09-09T15:05:58;2.97;;;0.60;;
19219;SDS011;9744;49.364;7.484;2022-09-09T15:08:34;7.40;;;0.70;;
19219;SDS011;9744;49.364;7.484;2022-09-09T15:11:03;4.60;;;0.47;;
19219;SDS011;9744;49.364;7.484;2022-09-09T15:13:33;2.92;;;0.60;;
19219;SDS011;9744;49.364;7.484;2022-09-09T15:16:05;3.55;;;0.65;;
19219;SDS011;9744;49.364;7.484;2022-09-09T15:18:34;2.05;;;0.52;;
19219;SDS011;9744;49.364;7.484;2022-09-09T15:21:07;3.03;;;0.65;;
19219;SDS011;9744;49.364;7.484;2022-09-09T15:23:34;6.68;;;0.60;;
19219;SDS011;9744;49.364;7.484;2022-09-09T15:26:02;3.70;;;0.75;;
19219;SDS011;9744;49.364;7.484;2022-09-09T15:28:31;4.50;;;0.60;;
19219;SDS011;9744;49.364;7.484;2022-09-09T15:31:04;4.38;;;0.60;;
19219;SDS011;9744;49.364;7.484;2022-09-09T15:33:33;3.15;;;0.50;;
19219;SDS011;9744;49.364;7.484;2022-09-09T15:36:13;3.92;;;0.52;;
19219;SDS011;9744;49.364;7.484;2022-09-09T15:38:41;3.03;;;0.60;;
19219;SDS011;9744;49.364;7.484;2022-09-09T15:41:09;4.10;;;0.52;;